sensor_id;sensor_type;location;lat;lon;timestamp;P1;durP1;ratioP1;P2;durP2;ratioP2
39924;SDS011;25592;49.986;11.618;2023-07-13T00:02:07;3.78;;;1.60;;
39924;SDS011;25592;49.986;11.618;2023-07-13T00:04:53;3.47;;;1.40;;
39924;SDS011;25592;49.986;11.618;2023-07-13T00:07:38;5.53;;;1.48;;
39924;SDS011;25592;49.986;11.618;2023-07-13T00:10:24;4.35;;;1.52;;
39924;SDS011;25592;49.986;11.618;2023-07-13T00:13:09;6.70;;;1.58;;
39924;SDS011;25592;49.986;11.618;2023-07-13T00:15:57;6.10;;;1.77;;
39924;SDS011;25592;49.986;11.618;2023-07-13T00:18:43;3.97;;;1.55;;
39924;SDS011;25592;49.986;11.618;2023-07-13T00:21:28;5.93;;;2.22;;
39924;SDS011;25592;49.986;11.618;2023-07-13T00:24:15;2.25;;;1.45;;
39924;SDS011;25592;49.986;11.618;2023-07-13T00:27:10;2.53;;;1.40;;
39924;SDS011;25592;49.986;11.618;2023-07-13T00:29:56;4.95;;;1.58;;
39924;SDS011;25592;49.986;11.618;2023-07-13T00:32:41;4.43;;;1.40;;
39924;SDS011;25592;49.986;11.618;2023-07-13T00:35:27;5.20;;;1.50;;
39924;SDS011;25592;49.986;11.618;2023-07-13T00:38:15;6.22;;;1.58;;
39924;SDS011;25592;49.986;11.618;2023-07-13T00:41:00;2.88;;;1.42;;
39924;SDS011;25592;49.986;11.618;2023-07-13T00:43:48;7.90;;;1.73;;
39924;SDS011;25592;49.986;11.618;2023-07-13T00:46:33;2.88;;;1.63;;
39924;SDS011;25592;49.986;11.618;2023-07-13T00:49:20;3.90;;;1.80;;
39924;SDS011;25592;49.986;11.618;2023-07-13T00:52:08;4.15;;;1.50;;
39924;SDS011;25592;49.986;11.618;2023-07-13T00:54:54;9.65;;;1.73;;
39924;SDS011;25592;49.986;11.618;2023-07-13T00:57:40;3.33;;;1.13;;
39924;SDS011;25592;49.986;11.618;2023-07-13T01:00:27;5.47;;;1.98;;
39924;SDS011;25592;49.986;11.618;2023-07-13T01:03:14;4.68;;;1.88;;
39924;SDS011;25592;49.986;11.618;2023-07-13T01:06:00;3.50;;;1.60;;
39924;SDS011;25592;49.986;11.618;2023-07-13T01:08:46;3.30;;;1.63;;
39924;SDS011;25592;49.986;11.618;2023-07-13T01:11:31;3.08;;;1.42;;
39924;SDS011;25592;49.986;11.618;2023-07-13T01:14:17;4.32;;;1.50;;
39924;SDS011;25592;49.986;11.618;2023-07-13T01:17:02;2.58;;;1.23;;
39924;SDS011;25592;49.986;11.618;2023-07-13T01:19:48;5.85;;;1.80;;
39924;SDS011;25592;49.986;11.618;2023-07-13T01:22:33;3.03;;;1.48;;
39924;SDS011;25592;49.986;11.618;2023-07-13T01:25:19;3.88;;;1.50;;
39924;SDS011;25592;49.986;11.618;2023-07-13T01:28:06;4.90;;;1.88;;
39924;SDS011;25592;49.986;11.618;2023-07-13T01:30:54;4.68;;;1.50;;
39924;SDS011;25592;49.986;11.618;2023-07-13T01:33:40;2.53;;;1.50;;
39924;SDS011;25592;49.986;11.618;2023-07-13T01:36:26;2.42;;;1.40;;
39924;SDS011;25592;49.986;11.618;2023-07-13T01:39:11;6.20;;;1.63;;
39924;SDS011;25592;49.986;11.618;2023-07-13T01:41:57;5.07;;;1.70;;
39924;SDS011;25592;49.986;11.618;2023-07-13T01:44:42;3.13;;;1.42;;
39924;SDS011;25592;49.986;11.618;2023-07-13T01:47:27;2.88;;;1.45;;
39924;SDS011;25592;49.986;11.618;2023-07-13T01:50:13;5.70;;;2.08;;
39924;SDS011;25592;49.986;11.618;2023-07-13T01:52:59;5.43;;;1.80;;
39924;SDS011;25592;49.986;11.618;2023-07-13T01:55:45;5.35;;;1.65;;
39924;SDS011;25592;49.986;11.618;2023-07-13T01:58:30;5.80;;;2.00;;
39924;SDS011;25592;49.986;11.618;2023-07-13T02:01:15;5.28;;;1.83;;
39924;SDS011;25592;49.986;11.618;2023-07-13T02:04:01;8.30;;;2.10;;
39924;SDS011;25592;49.986;11.618;2023-07-13T02:06:47;5.05;;;1.80;;
39924;SDS011;25592;49.986;11.618;2023-07-13T02:09:33;2.65;;;1.42;;
39924;SDS011;25592;49.986;11.618;2023-07-13T02:12:18;4.38;;;2.00;;
39924;SDS011;25592;49.986;11.618;2023-07-13T02:15:04;2.67;;;1.40;;
39924;SDS011;25592;49.986;11.618;2023-07-13T02:17:49;3.20;;;2.13;;
39924;SDS011;25592;49.986;11.618;2023-07-13T02:20:35;10.20;;;1.60;;
39924;SDS011;25592;49.986;11.618;2023-07-13T02:23:20;5.35;;;1.88;;
39924;SDS011;25592;49.986;11.618;2023-07-13T02:26:05;7.72;;;1.70;;
39924;SDS011;25592;49.986;11.618;2023-07-13T02:28:51;3.65;;;1.60;;
39924;SDS011;25592;49.986;11.618;2023-07-13T02:31:37;4.00;;;1.75;;
39924;SDS011;25592;49.986;11.618;2023-07-13T02:34:22;2.83;;;1.40;;
39924;SDS011;25592;49.986;11.618;2023-07-13T02:37:07;4.10;;;1.88;;
39924;SDS011;25592;49.986;11.618;2023-07-13T02:39:52;4.25;;;1.80;;
39924;SDS011;25592;49.986;11.618;2023-07-13T02:42:39;3.85;;;1.88;;
39924;SDS011;25592;49.986;11.618;2023-07-13T02:45:24;4.97;;;2.08;;
39924;SDS011;25592;49.986;11.618;2023-07-13T02:48:09;3.88;;;1.70;;
39924;SDS011;25592;49.986;11.618;2023-07-13T02:50:55;20.83;;;2.10;;
39924;SDS011;25592;49.986;11.618;2023-07-13T02:53:40;3.70;;;1.92;;
39924;SDS011;25592;49.986;11.618;2023-07-13T02:56:26;3.33;;;1.50;;
39924;SDS011;25592;49.986;11.618;2023-07-13T02:59:13;6.18;;;2.00;;
39924;SDS011;25592;49.986;11.618;2023-07-13T03:01:58;3.60;;;1.70;;
39924;SDS011;25592;49.986;11.618;2023-07-13T03:04:45;3.38;;;1.83;;
39924;SDS011;25592;49.986;11.618;2023-07-13T03:07:30;4.30;;;1.58;;
39924;SDS011;25592;49.986;11.618;2023-07-13T03:10:15;7.97;;;2.00;;
39924;SDS011;25592;49.986;11.618;2023-07-13T03:13:01;4.57;;;1.60;;
39924;SDS011;25592;49.986;11.618;2023-07-13T03:15:48;3.10;;;1.75;;
39924;SDS011;25592;49.986;11.618;2023-07-13T03:18:33;5.80;;;2.05;;
39924;SDS011;25592;49.986;11.618;2023-07-13T03:21:20;4.45;;;2.10;;
39924;SDS011;25592;49.986;11.618;2023-07-13T03:24:06;4.93;;;1.85;;
39924;SDS011;25592;49.986;11.618;2023-07-13T03:26:51;3.45;;;1.80;;
39924;SDS011;25592;49.986;11.618;2023-07-13T03:29:37;3.58;;;2.08;;
39924;SDS011;25592;49.986;11.618;2023-07-13T03:32:22;4.57;;;1.92;;
39924;SDS011;25592;49.986;11.618;2023-07-13T03:35:08;4.07;;;1.60;;
39924;SDS011;25592;49.986;11.618;2023-07-13T03:37:54;3.63;;;1.90;;
39924;SDS011;25592;49.986;11.618;2023-07-13T03:40:40;6.05;;;1.70;;
39924;SDS011;25592;49.986;11.618;2023-07-13T03:43:25;3.53;;;1.52;;
39924;SDS011;25592;49.986;11.618;2023-07-13T03:46:10;6.63;;;1.80;;
39924;SDS011;25592;49.986;11.618;2023-07-13T03:48:56;4.47;;;1.85;;
39924;SDS011;25592;49.986;11.618;2023-07-13T03:51:42;6.18;;;2.00;;
39924;SDS011;25592;49.986;11.618;2023-07-13T03:54:27;4.40;;;1.80;;
39924;SDS011;25592;49.986;11.618;2023-07-13T03:57:13;7.75;;;2.85;;
39924;SDS011;25592;49.986;11.618;2023-07-13T03:59:58;6.63;;;2.08;;
39924;SDS011;25592;49.986;11.618;2023-07-13T04:02:43;4.53;;;2.20;;
39924;SDS011;25592;49.986;11.618;2023-07-13T04:05:30;4.43;;;2.00;;
39924;SDS011;25592;49.986;11.618;2023-07-13T04:08:16;3.78;;;1.80;;
39924;SDS011;25592;49.986;11.618;2023-07-13T04:11:01;4.10;;;1.77;;
39924;SDS011;25592;49.986;11.618;2023-07-13T04:13:48;3.97;;;1.77;;
39924;SDS011;25592;49.986;11.618;2023-07-13T04:16:34;5.80;;;1.80;;
39924;SDS011;25592;49.986;11.618;2023-07-13T04:19:20;3.88;;;2.05;;
39924;SDS011;25592;49.986;11.618;2023-07-13T04:22:05;4.80;;;2.15;;
39924;SDS011;25592;49.986;11.618;2023-07-13T04:24:51;6.85;;;2.97;;
39924;SDS011;25592;49.986;11.618;2023-07-13T04:27:36;11.93;;;3.42;;
39924;SDS011;25592;49.986;11.618;2023-07-13T04:30:22;5.63;;;2.97;;
39924;SDS011;25592;49.986;11.618;2023-07-13T04:33:07;6.40;;;2.10;;
39924;SDS011;25592;49.986;11.618;2023-07-13T04:35:53;9.18;;;2.53;;
39924;SDS011;25592;49.986;11.618;2023-07-13T04:38:42;7.90;;;2.53;;
39924;SDS011;25592;49.986;11.618;2023-07-13T04:41:28;4.70;;;2.65;;
39924;SDS011;25592;49.986;11.618;2023-07-13T04:44:13;6.03;;;2.20;;
39924;SDS011;25592;49.986;11.618;2023-07-13T04:46:59;4.47;;;2.22;;
39924;SDS011;25592;49.986;11.618;2023-07-13T04:49:44;5.55;;;2.40;;
39924;SDS011;25592;49.986;11.618;2023-07-13T04:52:30;6.68;;;2.33;;
39924;SDS011;25592;49.986;11.618;2023-07-13T04:55:15;5.97;;;2.85;;
39924;SDS011;25592;49.986;11.618;2023-07-13T04:58:01;6.03;;;2.17;;
39924;SDS011;25592;49.986;11.618;2023-07-13T05:00:47;5.60;;;2.00;;
39924;SDS011;25592;49.986;11.618;2023-07-13T05:03:32;5.45;;;2.22;;
39924;SDS011;25592;49.986;11.618;2023-07-13T05:06:19;8.68;;;2.20;;
39924;SDS011;25592;49.986;11.618;2023-07-13T05:09:04;4.60;;;1.80;;
39924;SDS011;25592;49.986;11.618;2023-07-13T05:11:50;3.38;;;1.80;;
39924;SDS011;25592;49.986;11.618;2023-07-13T05:14:36;6.50;;;2.25;;
39924;SDS011;25592;49.986;11.618;2023-07-13T05:17:21;6.50;;;2.33;;
39924;SDS011;25592;49.986;11.618;2023-07-13T05:20:07;5.47;;;2.88;;
39924;SDS011;25592;49.986;11.618;2023-07-13T05:22:53;6.75;;;2.25;;
39924;SDS011;25592;49.986;11.618;2023-07-13T05:25:39;5.25;;;2.20;;
39924;SDS011;25592;49.986;11.618;2023-07-13T05:28:25;5.10;;;2.30;;
39924;SDS011;25592;49.986;11.618;2023-07-13T05:31:12;4.57;;;2.25;;
39924;SDS011;25592;49.986;11.618;2023-07-13T05:33:58;4.35;;;2.20;;
39924;SDS011;25592;49.986;11.618;2023-07-13T05:36:44;6.18;;;1.75;;
39924;SDS011;25592;49.986;11.618;2023-07-13T05:39:29;3.78;;;2.10;;
39924;SDS011;25592;49.986;11.618;2023-07-13T05:42:15;4.00;;;1.98;;
39924;SDS011;25592;49.986;11.618;2023-07-13T05:45:00;3.83;;;2.17;;
39924;SDS011;25592;49.986;11.618;2023-07-13T05:47:46;3.55;;;2.22;;
39924;SDS011;25592;49.986;11.618;2023-07-13T05:50:34;6.85;;;2.80;;
39924;SDS011;25592;49.986;11.618;2023-07-13T05:53:20;5.63;;;2.05;;
39924;SDS011;25592;49.986;11.618;2023-07-13T05:56:05;3.05;;;1.40;;
39924;SDS011;25592;49.986;11.618;2023-07-13T05:58:51;6.28;;;2.13;;
39924;SDS011;25592;49.986;11.618;2023-07-13T06:01:36;4.38;;;1.92;;
39924;SDS011;25592;49.986;11.618;2023-07-13T06:04:21;4.68;;;2.05;;
39924;SDS011;25592;49.986;11.618;2023-07-13T06:07:07;4.70;;;1.70;;
39924;SDS011;25592;49.986;11.618;2023-07-13T06:09:52;4.05;;;1.52;;
39924;SDS011;25592;49.986;11.618;2023-07-13T06:12:38;4.60;;;1.60;;
39924;SDS011;25592;49.986;11.618;2023-07-13T06:15:23;3.13;;;1.23;;
39924;SDS011;25592;49.986;11.618;2023-07-13T06:18:09;2.75;;;1.40;;
39924;SDS011;25592;49.986;11.618;2023-07-13T06:20:54;4.78;;;1.90;;
39924;SDS011;25592;49.986;11.618;2023-07-13T06:23:39;4.32;;;1.83;;
39924;SDS011;25592;49.986;11.618;2023-07-13T06:26:25;5.50;;;1.65;;
39924;SDS011;25592;49.986;11.618;2023-07-13T06:29:10;3.90;;;1.40;;
39924;SDS011;25592;49.986;11.618;2023-07-13T06:31:56;3.35;;;1.75;;
39924;SDS011;25592;49.986;11.618;2023-07-13T06:34:41;3.72;;;1.73;;
39924;SDS011;25592;49.986;11.618;2023-07-13T06:37:27;5.53;;;1.80;;
39924;SDS011;25592;49.986;11.618;2023-07-13T06:40:12;6.70;;;1.42;;
39924;SDS011;25592;49.986;11.618;2023-07-13T06:42:58;7.40;;;1.80;;
39924;SDS011;25592;49.986;11.618;2023-07-13T06:45:44;5.72;;;1.70;;
39924;SDS011;25592;49.986;11.618;2023-07-13T06:48:32;4.20;;;1.98;;
39924;SDS011;25592;49.986;11.618;2023-07-13T06:51:17;6.40;;;1.80;;
39924;SDS011;25592;49.986;11.618;2023-07-13T06:54:03;12.68;;;2.22;;
39924;SDS011;25592;49.986;11.618;2023-07-13T06:56:48;9.48;;;2.55;;
39924;SDS011;25592;49.986;11.618;2023-07-13T06:59:33;4.85;;;1.45;;
39924;SDS011;25592;49.986;11.618;2023-07-13T07:02:19;3.38;;;1.27;;
39924;SDS011;25592;49.986;11.618;2023-07-13T07:05:05;4.15;;;1.55;;
39924;SDS011;25592;49.986;11.618;2023-07-13T07:07:51;5.47;;;1.33;;
39924;SDS011;25592;49.986;11.618;2023-07-13T07:10:37;6.05;;;1.42;;
39924;SDS011;25592;49.986;11.618;2023-07-13T07:13:22;4.93;;;1.30;;
39924;SDS011;25592;49.986;11.618;2023-07-13T07:16:08;5.72;;;1.58;;
39924;SDS011;25592;49.986;11.618;2023-07-13T07:18:53;6.80;;;1.88;;
39924;SDS011;25592;49.986;11.618;2023-07-13T07:21:39;4.32;;;1.33;;
39924;SDS011;25592;49.986;11.618;2023-07-13T07:24:25;9.80;;;1.33;;
39924;SDS011;25592;49.986;11.618;2023-07-13T07:27:10;6.03;;;1.67;;
39924;SDS011;25592;49.986;11.618;2023-07-13T07:29:59;11.05;;;2.38;;
39924;SDS011;25592;49.986;11.618;2023-07-13T07:32:47;3.63;;;1.30;;
39924;SDS011;25592;49.986;11.618;2023-07-13T07:35:36;5.93;;;1.42;;
39924;SDS011;25592;49.986;11.618;2023-07-13T07:38:41;4.75;;;1.60;;
39924;SDS011;25592;49.986;11.618;2023-07-13T07:41:27;7.03;;;1.38;;
39924;SDS011;25592;49.986;11.618;2023-07-13T07:44:15;2.78;;;1.25;;
39924;SDS011;25592;49.986;11.618;2023-07-13T07:47:00;6.75;;;1.20;;
39924;SDS011;25592;49.986;11.618;2023-07-13T07:49:46;2.63;;;1.00;;
39924;SDS011;25592;49.986;11.618;2023-07-13T07:52:31;8.05;;;1.20;;
39924;SDS011;25592;49.986;11.618;2023-07-13T07:55:16;2.55;;;1.08;;
39924;SDS011;25592;49.986;11.618;2023-07-13T07:58:05;4.18;;;1.20;;
39924;SDS011;25592;49.986;11.618;2023-07-13T08:01:11;4.88;;;1.63;;
39924;SDS011;25592;49.986;11.618;2023-07-13T08:03:59;2.60;;;1.10;;
39924;SDS011;25592;49.986;11.618;2023-07-13T08:06:47;4.82;;;1.38;;
39924;SDS011;25592;49.986;11.618;2023-07-13T08:09:32;4.22;;;1.77;;
39924;SDS011;25592;49.986;11.618;2023-07-13T08:12:18;7.88;;;1.20;;
39924;SDS011;25592;49.986;11.618;2023-07-13T08:15:23;6.22;;;1.80;;
39924;SDS011;25592;49.986;11.618;2023-07-13T08:18:08;3.65;;;1.27;;
39924;SDS011;25592;49.986;11.618;2023-07-13T08:20:54;5.53;;;1.60;;
39924;SDS011;25592;49.986;11.618;2023-07-13T08:23:43;9.80;;;1.42;;
39924;SDS011;25592;49.986;11.618;2023-07-13T08:26:28;6.55;;;1.50;;
39924;SDS011;25592;49.986;11.618;2023-07-13T08:29:14;2.92;;;1.05;;
39924;SDS011;25592;49.986;11.618;2023-07-13T08:31:59;6.93;;;1.35;;
39924;SDS011;25592;49.986;11.618;2023-07-13T08:34:45;4.32;;;1.15;;
39924;SDS011;25592;49.986;11.618;2023-07-13T08:37:31;3.50;;;1.20;;
39924;SDS011;25592;49.986;11.618;2023-07-13T08:40:16;4.25;;;1.20;;
39924;SDS011;25592;49.986;11.618;2023-07-13T08:43:06;5.20;;;1.42;;
39924;SDS011;25592;49.986;11.618;2023-07-13T08:46:05;3.42;;;1.25;;
39924;SDS011;25592;49.986;11.618;2023-07-13T08:49:00;14.40;;;2.83;;
39924;SDS011;25592;49.986;11.618;2023-07-13T08:51:56;6.90;;;1.40;;
39924;SDS011;25592;49.986;11.618;2023-07-13T08:54:46;3.45;;;1.10;;
39924;SDS011;25592;49.986;11.618;2023-07-13T08:57:36;3.53;;;1.35;;
39924;SDS011;25592;49.986;11.618;2023-07-13T09:00:25;7.22;;;1.60;;
39924;SDS011;25592;49.986;11.618;2023-07-13T09:03:23;4.40;;;1.10;;
39924;SDS011;25592;49.986;11.618;2023-07-13T09:06:13;2.78;;;1.27;;
39924;SDS011;25592;49.986;11.618;2023-07-13T09:09:05;8.35;;;1.70;;
39924;SDS011;25592;49.986;11.618;2023-07-13T09:12:14;3.78;;;1.27;;
39924;SDS011;25592;49.986;11.618;2023-07-13T09:15:14;4.03;;;1.23;;
39924;SDS011;25592;49.986;11.618;2023-07-13T09:21:18;4.22;;;1.10;;
39924;SDS011;25592;49.986;11.618;2023-07-13T09:27:14;4.85;;;1.30;;
39924;SDS011;25592;49.986;11.618;2023-07-13T09:30:30;5.65;;;1.30;;
39924;SDS011;25592;49.986;11.618;2023-07-13T09:33:17;4.28;;;1.17;;
39924;SDS011;25592;49.986;11.618;2023-07-13T09:36:05;3.70;;;1.10;;
39924;SDS011;25592;49.986;11.618;2023-07-13T09:41:57;3.42;;;1.25;;
39924;SDS011;25592;49.986;11.618;2023-07-13T09:44:59;5.18;;;1.50;;
39924;SDS011;25592;49.986;11.618;2023-07-13T09:47:50;4.05;;;1.13;;
39924;SDS011;25592;49.986;11.618;2023-07-13T09:50:58;3.40;;;0.95;;
39924;SDS011;25592;49.986;11.618;2023-07-13T09:53:51;2.88;;;1.20;;
39924;SDS011;25592;49.986;11.618;2023-07-13T09:56:39;3.95;;;1.17;;
39924;SDS011;25592;49.986;11.618;2023-07-13T09:59:29;8.52;;;2.38;;
39924;SDS011;25592;49.986;11.618;2023-07-13T10:02:32;2.63;;;0.90;;
39924;SDS011;25592;49.986;11.618;2023-07-13T10:05:19;2.47;;;0.93;;
39924;SDS011;25592;49.986;11.618;2023-07-13T10:08:14;6.45;;;1.48;;
39924;SDS011;25592;49.986;11.618;2023-07-13T10:11:11;1.58;;;0.80;;
39924;SDS011;25592;49.986;11.618;2023-07-13T10:14:00;1.55;;;0.73;;
39924;SDS011;25592;49.986;11.618;2023-07-13T10:16:48;3.40;;;0.93;;
39924;SDS011;25592;49.986;11.618;2023-07-13T10:19:37;3.25;;;0.90;;
39924;SDS011;25592;49.986;11.618;2023-07-13T10:22:26;2.30;;;0.80;;
39924;SDS011;25592;49.986;11.618;2023-07-13T10:25:21;1.27;;;0.75;;
39924;SDS011;25592;49.986;11.618;2023-07-13T10:28:12;3.20;;;1.08;;
39924;SDS011;25592;49.986;11.618;2023-07-13T10:31:12;11.85;;;1.65;;
39924;SDS011;25592;49.986;11.618;2023-07-13T10:34:00;2.45;;;0.85;;
39924;SDS011;25592;49.986;11.618;2023-07-13T10:36:46;6.43;;;1.05;;
39924;SDS011;25592;49.986;11.618;2023-07-13T10:39:33;3.60;;;0.90;;
39924;SDS011;25592;49.986;11.618;2023-07-13T10:42:27;2.13;;;0.90;;
39924;SDS011;25592;49.986;11.618;2023-07-13T10:45:21;2.13;;;0.90;;
39924;SDS011;25592;49.986;11.618;2023-07-13T10:48:09;2.88;;;1.27;;
39924;SDS011;25592;49.986;11.618;2023-07-13T10:51:00;4.82;;;1.00;;
39924;SDS011;25592;49.986;11.618;2023-07-13T10:53:47;5.03;;;1.35;;
39924;SDS011;25592;49.986;11.618;2023-07-13T10:57:17;3.40;;;1.00;;
39924;SDS011;25592;49.986;11.618;2023-07-13T11:00:15;2.63;;;1.10;;
39924;SDS011;25592;49.986;11.618;2023-07-13T11:03:02;2.83;;;1.00;;
39924;SDS011;25592;49.986;11.618;2023-07-13T11:05:49;2.63;;;0.85;;
39924;SDS011;25592;49.986;11.618;2023-07-13T11:08:53;4.30;;;0.95;;
39924;SDS011;25592;49.986;11.618;2023-07-13T11:11:40;1.90;;;0.93;;
39924;SDS011;25592;49.986;11.618;2023-07-13T11:14:28;2.08;;;1.20;;
39924;SDS011;25592;49.986;11.618;2023-07-13T11:20:35;3.95;;;0.85;;
39924;SDS011;25592;49.986;11.618;2023-07-13T11:23:28;4.10;;;1.27;;
39924;SDS011;25592;49.986;11.618;2023-07-13T11:29:37;1.40;;;0.70;;
39924;SDS011;25592;49.986;11.618;2023-07-13T11:32:24;2.00;;;0.90;;
39924;SDS011;25592;49.986;11.618;2023-07-13T11:35:17;4.57;;;1.13;;
39924;SDS011;25592;49.986;11.618;2023-07-13T11:38:11;1.13;;;0.75;;
39924;SDS011;25592;49.986;11.618;2023-07-13T11:41:04;4.20;;;1.00;;
39924;SDS011;25592;49.986;11.618;2023-07-13T11:44:04;3.75;;;1.00;;
39924;SDS011;25592;49.986;11.618;2023-07-13T11:46:58;4.18;;;1.58;;
39924;SDS011;25592;49.986;11.618;2023-07-13T11:49:55;1.88;;;0.80;;
39924;SDS011;25592;49.986;11.618;2023-07-13T11:52:41;1.67;;;0.70;;
39924;SDS011;25592;49.986;11.618;2023-07-13T11:55:27;1.98;;;0.75;;
39924;SDS011;25592;49.986;11.618;2023-07-13T11:58:14;1.33;;;0.70;;
39924;SDS011;25592;49.986;11.618;2023-07-13T12:01:05;2.15;;;0.95;;
39924;SDS011;25592;49.986;11.618;2023-07-13T12:03:51;3.25;;;1.00;;
39924;SDS011;25592;49.986;11.618;2023-07-13T12:06:38;2.33;;;0.73;;
39924;SDS011;25592;49.986;11.618;2023-07-13T12:09:26;2.50;;;0.88;;
39924;SDS011;25592;49.986;11.618;2023-07-13T12:12:13;1.48;;;0.80;;
39924;SDS011;25592;49.986;11.618;2023-07-13T12:15:07;3.65;;;0.88;;
39924;SDS011;25592;49.986;11.618;2023-07-13T12:17:53;1.75;;;0.82;;
39924;SDS011;25592;49.986;11.618;2023-07-13T12:20:41;4.28;;;0.88;;
39924;SDS011;25592;49.986;11.618;2023-07-13T12:26:17;2.35;;;1.15;;
39924;SDS011;25592;49.986;11.618;2023-07-13T12:29:04;3.22;;;0.90;;
39924;SDS011;25592;49.986;11.618;2023-07-13T12:31:51;2.08;;;0.90;;
39924;SDS011;25592;49.986;11.618;2023-07-13T12:34:49;1.48;;;0.73;;
39924;SDS011;25592;49.986;11.618;2023-07-13T12:37:48;3.28;;;0.95;;
39924;SDS011;25592;49.986;11.618;2023-07-13T12:40:33;5.72;;;1.65;;
39924;SDS011;25592;49.986;11.618;2023-07-13T12:43:21;2.45;;;0.80;;
39924;SDS011;25592;49.986;11.618;2023-07-13T12:46:16;4.18;;;0.95;;
39924;SDS011;25592;49.986;11.618;2023-07-13T12:49:06;3.88;;;0.82;;
39924;SDS011;25592;49.986;11.618;2023-07-13T12:52:03;2.67;;;0.98;;
39924;SDS011;25592;49.986;11.618;2023-07-13T12:54:58;1.58;;;0.90;;
39924;SDS011;25592;49.986;11.618;2023-07-13T12:57:51;4.25;;;1.58;;
39924;SDS011;25592;49.986;11.618;2023-07-13T13:00:40;1.95;;;0.85;;
39924;SDS011;25592;49.986;11.618;2023-07-13T13:09:05;2.13;;;1.08;;
39924;SDS011;25592;49.986;11.618;2023-07-13T13:11:57;3.45;;;1.00;;
39924;SDS011;25592;49.986;11.618;2023-07-13T13:14:43;4.15;;;1.45;;
39924;SDS011;25592;49.986;11.618;2023-07-13T13:17:29;1.70;;;0.75;;
39924;SDS011;25592;49.986;11.618;2023-07-13T13:20:17;3.72;;;0.82;;
39924;SDS011;25592;49.986;11.618;2023-07-13T13:23:07;3.88;;;1.40;;
39924;SDS011;25592;49.986;11.618;2023-07-13T13:26:02;2.88;;;1.25;;
39924;SDS011;25592;49.986;11.618;2023-07-13T13:28:50;3.45;;;0.90;;
39924;SDS011;25592;49.986;11.618;2023-07-13T13:31:35;3.65;;;1.13;;
39924;SDS011;25592;49.986;11.618;2023-07-13T13:34:22;3.55;;;1.00;;
39924;SDS011;25592;49.986;11.618;2023-07-13T13:37:21;5.63;;;1.65;;
39924;SDS011;25592;49.986;11.618;2023-07-13T13:40:13;5.25;;;1.20;;
39924;SDS011;25592;49.986;11.618;2023-07-13T13:43:01;4.57;;;1.27;;
39924;SDS011;25592;49.986;11.618;2023-07-13T13:45:46;3.13;;;1.10;;
39924;SDS011;25592;49.986;11.618;2023-07-13T13:48:33;4.25;;;1.20;;
39924;SDS011;25592;49.986;11.618;2023-07-13T13:51:21;4.40;;;1.45;;
39924;SDS011;25592;49.986;11.618;2023-07-13T13:54:12;3.30;;;1.15;;
39924;SDS011;25592;49.986;11.618;2023-07-13T13:56:58;3.53;;;1.40;;
39924;SDS011;25592;49.986;11.618;2023-07-13T13:59:44;2.13;;;0.95;;
39924;SDS011;25592;49.986;11.618;2023-07-13T14:02:30;4.68;;;1.10;;
39924;SDS011;25592;49.986;11.618;2023-07-13T14:05:18;6.53;;;1.55;;
39924;SDS011;25592;49.986;11.618;2023-07-13T14:08:17;8.30;;;1.13;;
39924;SDS011;25592;49.986;11.618;2023-07-13T14:11:04;2.92;;;0.98;;
39924;SDS011;25592;49.986;11.618;2023-07-13T14:13:56;4.80;;;1.10;;
39924;SDS011;25592;49.986;11.618;2023-07-13T14:16:43;3.15;;;1.23;;
39924;SDS011;25592;49.986;11.618;2023-07-13T14:19:31;4.18;;;1.15;;
39924;SDS011;25592;49.986;11.618;2023-07-13T14:22:17;2.17;;;1.00;;
39924;SDS011;25592;49.986;11.618;2023-07-13T14:25:03;3.38;;;1.30;;
39924;SDS011;25592;49.986;11.618;2023-07-13T14:27:50;3.50;;;1.20;;
39924;SDS011;25592;49.986;11.618;2023-07-13T14:30:41;2.53;;;1.10;;
39924;SDS011;25592;49.986;11.618;2023-07-13T14:33:27;6.35;;;1.20;;
39924;SDS011;25592;49.986;11.618;2023-07-13T14:36:32;2.92;;;1.00;;
39924;SDS011;25592;49.986;11.618;2023-07-13T14:39:22;4.82;;;1.23;;
39924;SDS011;25592;49.986;11.618;2023-07-13T14:42:09;6.53;;;1.58;;
39924;SDS011;25592;49.986;11.618;2023-07-13T14:44:56;3.15;;;1.38;;
39924;SDS011;25592;49.986;11.618;2023-07-13T14:47:42;2.17;;;1.30;;
39924;SDS011;25592;49.986;11.618;2023-07-13T14:50:31;5.38;;;1.30;;
39924;SDS011;25592;49.986;11.618;2023-07-13T14:53:17;4.72;;;1.08;;
39924;SDS011;25592;49.986;11.618;2023-07-13T14:56:08;5.78;;;1.40;;
39924;SDS011;25592;49.986;11.618;2023-07-13T14:58:56;5.82;;;0.95;;
39924;SDS011;25592;49.986;11.618;2023-07-13T15:01:41;3.80;;;1.40;;
39924;SDS011;25592;49.986;11.618;2023-07-13T15:04:27;4.78;;;1.42;;
39924;SDS011;25592;49.986;11.618;2023-07-13T15:07:12;3.70;;;1.85;;
39924;SDS011;25592;49.986;11.618;2023-07-13T15:10:00;2.78;;;1.00;;
39924;SDS011;25592;49.986;11.618;2023-07-13T15:12:46;4.60;;;1.17;;
39924;SDS011;25592;49.986;11.618;2023-07-13T15:15:32;6.65;;;1.52;;
39924;SDS011;25592;49.986;11.618;2023-07-13T15:18:21;4.13;;;1.10;;
39924;SDS011;25592;49.986;11.618;2023-07-13T15:21:09;5.00;;;1.50;;
39924;SDS011;25592;49.986;11.618;2023-07-13T15:23:59;4.05;;;1.50;;
39924;SDS011;25592;49.986;11.618;2023-07-13T15:26:45;4.53;;;1.33;;
39924;SDS011;25592;49.986;11.618;2023-07-13T15:29:33;2.92;;;1.42;;
39924;SDS011;25592;49.986;11.618;2023-07-13T15:32:19;3.55;;;1.40;;
39924;SDS011;25592;49.986;11.618;2023-07-13T15:35:05;6.35;;;1.20;;
39924;SDS011;25592;49.986;11.618;2023-07-13T15:37:57;2.80;;;1.10;;
39924;SDS011;25592;49.986;11.618;2023-07-13T15:40:42;5.63;;;1.63;;
39924;SDS011;25592;49.986;11.618;2023-07-13T15:43:29;7.78;;;1.30;;
39924;SDS011;25592;49.986;11.618;2023-07-13T15:46:21;5.80;;;1.45;;
39924;SDS011;25592;49.986;11.618;2023-07-13T15:49:08;4.18;;;1.33;;
39924;SDS011;25592;49.986;11.618;2023-07-13T15:51:54;4.47;;;1.40;;
39924;SDS011;25592;49.986;11.618;2023-07-13T15:54:40;4.68;;;1.02;;
39924;SDS011;25592;49.986;11.618;2023-07-13T15:57:26;4.40;;;1.13;;
39924;SDS011;25592;49.986;11.618;2023-07-13T16:00:22;3.90;;;1.02;;
39924;SDS011;25592;49.986;11.618;2023-07-13T16:03:10;2.47;;;1.10;;
39924;SDS011;25592;49.986;11.618;2023-07-13T16:05:57;1.95;;;1.00;;
39924;SDS011;25592;49.986;11.618;2023-07-13T16:08:42;6.40;;;1.63;;
39924;SDS011;25592;49.986;11.618;2023-07-13T16:11:38;3.67;;;1.48;;
39924;SDS011;25592;49.986;11.618;2023-07-13T16:14:24;2.30;;;1.15;;
39924;SDS011;25592;49.986;11.618;2023-07-13T16:17:10;4.25;;;1.02;;
39924;SDS011;25592;49.986;11.618;2023-07-13T16:19:59;5.90;;;1.02;;
39924;SDS011;25592;49.986;11.618;2023-07-13T16:22:45;4.40;;;1.63;;
39924;SDS011;25592;49.986;11.618;2023-07-13T16:25:33;4.78;;;1.50;;
39924;SDS011;25592;49.986;11.618;2023-07-13T16:28:18;3.67;;;1.10;;
39924;SDS011;25592;49.986;11.618;2023-07-13T16:31:04;4.32;;;1.20;;
39924;SDS011;25592;49.986;11.618;2023-07-13T16:33:53;4.32;;;1.15;;
39924;SDS011;25592;49.986;11.618;2023-07-13T16:36:38;2.00;;;0.90;;
39924;SDS011;25592;49.986;11.618;2023-07-13T16:39:25;4.22;;;1.60;;
39924;SDS011;25592;49.986;11.618;2023-07-13T16:42:12;2.72;;;1.10;;
39924;SDS011;25592;49.986;11.618;2023-07-13T16:44:57;2.55;;;0.82;;
39924;SDS011;25592;49.986;11.618;2023-07-13T16:47:43;3.30;;;1.08;;
39924;SDS011;25592;49.986;11.618;2023-07-13T16:50:32;6.93;;;1.35;;
39924;SDS011;25592;49.986;11.618;2023-07-13T16:53:20;2.95;;;1.23;;
39924;SDS011;25592;49.986;11.618;2023-07-13T16:56:08;3.30;;;1.40;;
39924;SDS011;25592;49.986;11.618;2023-07-13T16:59:01;3.38;;;0.93;;
39924;SDS011;25592;49.986;11.618;2023-07-13T17:01:48;6.45;;;1.10;;